createdAt,value
2023-05-01T00:01:12.112Z,46.02
2023-05-01T00:03:42.916Z,46.03
2023-05-01T00:06:13.651Z,46.02
2023-05-01T00:08:44.222Z,46.10
2023-05-01T00:11:14.820Z,46.12
2023-05-01T00:13:45.414Z,46.03
2023-05-01T00:16:17.090Z,46.15
2023-05-01T00:18:47.765Z,46.16
2023-05-01T00:21:18.384Z,46.07
2023-05-01T00:23:48.937Z,46.20
2023-05-01T00:26:19.466Z,46.32
2023-05-01T00:28:51.306Z,46.37
2023-05-01T00:31:21.952Z,46.23
2023-05-01T00:33:52.498Z,46.42
2023-05-01T00:36:23.481Z,46.28
2023-05-01T00:38:54.040Z,46.42
2023-05-01T00:41:24.634Z,46.43
2023-05-01T00:43:55.170Z,46.43
2023-05-01T00:46:25.963Z,46.33
2023-05-01T00:48:57.772Z,46.44
2023-05-01T00:51:30.428Z,46.54
2023-05-01T00:54:01.615Z,46.46
2023-05-01T00:56:32.461Z,46.62
2023-05-01T00:59:03.022Z,46.62
2023-05-01T01:01:34.849Z,46.50
2023-05-01T01:04:05.723Z,46.64
2023-05-01T01:06:42.327Z,46.54
2023-05-01T01:09:19.284Z,46.72
2023-05-01T01:11:54.411Z,46.66
2023-05-01T01:14:27.710Z,46.79
2023-05-01T01:17:02.563Z,46.89
2023-05-01T01:19:49.423Z,46.93
2023-05-01T01:22:22.049Z,46.94
2023-05-01T01:25:09.861Z,46.99
2023-05-01T01:27:55.914Z,46.95
2023-05-01T01:30:54.226Z,46.81
2023-05-01T01:33:29.556Z,46.90
2023-05-01T01:36:04.088Z,46.78
2023-05-01T01:38:37.786Z,46.98
2023-05-01T01:41:11.136Z,46.97
2023-05-01T01:43:44.961Z,46.93
2023-05-01T01:46:17.942Z,46.91
2023-05-01T01:48:50.347Z,47.11
2023-05-01T01:51:23.612Z,47.21
2023-05-01T01:53:55.478Z,47.26
2023-05-01T01:56:27.998Z,47.17
2023-05-01T01:58:59.429Z,47.13
2023-05-01T02:01:30.529Z,47.16
2023-05-01T02:04:03.665Z,47.25
2023-05-01T02:06:35.048Z,47.05
2023-05-01T02:09:07.760Z,47.26
2023-05-01T02:11:39.226Z,47.18
2023-05-01T02:14:10.176Z,47.20
2023-05-01T02:16:41.203Z,47.00
2023-05-01T02:19:12.617Z,47.38
2023-05-01T02:21:44.043Z,47.25
2023-05-01T02:24:15.376Z,47.29
2023-05-01T02:26:50.687Z,47.36
2023-05-01T02:29:21.161Z,47.48
2023-05-01T02:31:51.960Z,47.22
2023-05-01T02:34:22.963Z,47.22
2023-05-01T02:36:53.587Z,47.75
2023-05-01T02:39:24.741Z,47.43
2023-05-01T02:41:56.574Z,47.39
2023-05-01T02:44:27.531Z,47.56
2023-05-01T02:47:01.872Z,47.55
2023-05-01T02:49:33.097Z,47.67
2023-05-01T02:52:04.582Z,47.63
2023-05-01T02:54:35.521Z,47.67
2023-05-01T02:57:06.738Z,47.74
2023-05-01T02:59:37.385Z,47.53
2023-05-01T03:02:08.100Z,47.90
2023-05-01T03:04:38.868Z,47.60
2023-05-01T03:07:10.073Z,47.59
2023-05-01T03:09:40.597Z,47.78
2023-05-01T03:12:11.175Z,47.90
2023-05-01T03:14:41.706Z,47.74
2023-05-01T03:17:12.313Z,47.87
2023-05-01T03:19:42.847Z,47.95
2023-05-01T03:22:13.448Z,48.13
2023-05-01T03:24:44.161Z,47.88
2023-05-01T03:27:14.970Z,47.95
2023-05-01T03:29:45.632Z,48.03
2023-05-01T03:32:17.966Z,47.83
2023-05-01T03:34:49.579Z,47.94
2023-05-01T03:37:21.195Z,47.73
2023-05-01T03:39:52.609Z,48.12
2023-05-01T03:42:41.804Z,47.97
2023-05-01T03:45:17.820Z,48.11
2023-05-01T03:47:48.463Z,48.23
2023-05-01T03:50:19.694Z,48.39
2023-05-01T03:52:50.949Z,48.15
2023-05-01T03:55:21.908Z,48.43
2023-05-01T03:57:54.223Z,48.20
2023-05-01T04:00:25.241Z,48.46
2023-05-01T04:02:56.980Z,48.32
2023-05-01T04:05:28.058Z,48.29
2023-05-01T04:08:01.731Z,48.49
2023-05-01T04:10:32.326Z,48.59
2023-05-01T04:13:07.104Z,48.63
2023-05-01T04:15:39.567Z,48.69
2023-05-01T04:18:10.216Z,48.81
2023-05-01T04:20:41.356Z,48.76
2023-05-01T04:23:12.877Z,48.66
2023-05-01T04:25:43.339Z,48.62
2023-05-01T04:28:16.713Z,48.77
2023-05-01T04:30:47.299Z,48.67
2023-05-01T04:33:17.983Z,48.58
2023-05-01T04:35:48.894Z,48.64
2023-05-01T04:38:19.899Z,49.02
2023-05-01T04:40:52.523Z,48.79
2023-05-01T04:43:23.058Z,48.91
2023-05-01T04:45:53.572Z,48.87
2023-05-01T04:48:24.452Z,49.02
2023-05-01T04:50:55.249Z,48.92
2023-05-01T04:53:27.206Z,48.85
2023-05-01T04:55:57.682Z,48.95
2023-05-01T04:58:29.020Z,49.15
2023-05-01T05:01:03.091Z,49.12
2023-05-01T05:03:34.059Z,49.41
2023-05-01T05:06:04.960Z,49.18
2023-05-01T05:08:36.103Z,49.38
2023-05-01T05:11:14.177Z,49.21
2023-05-01T05:14:01.141Z,49.31
2023-05-01T05:16:31.828Z,49.46
2023-05-01T05:19:03.252Z,49.41
2023-05-01T05:21:35.952Z,49.29
2023-05-01T05:24:06.958Z,49.35
2023-05-01T05:26:38.281Z,49.40
2023-05-01T05:29:09.818Z,49.39
2023-05-01T05:31:40.368Z,49.46
2023-05-01T05:34:11.550Z,49.38
2023-05-01T05:36:42.513Z,49.45
2023-05-01T05:39:14.005Z,49.39
2023-05-01T05:41:45.065Z,49.53
2023-05-01T05:44:15.670Z,49.49
2023-05-01T05:46:46.331Z,49.42
2023-05-01T05:49:18.025Z,49.47
2023-05-01T05:51:48.598Z,49.36
2023-05-01T05:54:19.797Z,49.28
2023-05-01T05:56:52.259Z,49.39
2023-05-01T05:59:22.830Z,49.30
2023-05-01T06:01:53.400Z,49.28
2023-05-01T06:04:23.968Z,49.22
2023-05-01T06:06:54.850Z,49.23
2023-05-01T06:09:26.428Z,49.10
2023-05-01T06:11:57.207Z,48.96
2023-05-01T06:14:27.978Z,48.93
2023-05-01T06:16:58.494Z,49.01
2023-05-01T06:19:29.073Z,49.13
2023-05-01T06:22:08.131Z,48.93
2023-05-01T06:24:43.039Z,48.78
2023-05-01T06:27:14.027Z,48.98
2023-05-01T06:29:44.612Z,48.96
2023-05-01T06:32:15.273Z,48.93
2023-05-01T06:34:46.408Z,48.87
2023-05-01T06:37:17.960Z,49.00
2023-05-01T06:39:48.795Z,48.88
2023-05-01T06:42:21.449Z,48.93
2023-05-01T06:44:52.053Z,49.03
2023-05-01T06:47:22.696Z,48.76
2023-05-01T06:49:53.327Z,48.52
2023-05-01T06:52:23.882Z,49.03
2023-05-01T06:54:54.457Z,48.90
2023-05-01T06:57:25.051Z,48.67
2023-05-01T06:59:55.840Z,48.66
2023-05-01T07:02:26.755Z,48.66
2023-05-01T07:04:57.344Z,48.72
2023-05-01T07:07:27.906Z,48.96
2023-05-01T07:09:58.819Z,48.16
2023-05-01T07:12:29.855Z,47.78
2023-05-01T07:15:00.926Z,47.87
2023-05-01T07:17:31.813Z,47.81
2023-05-01T07:20:02.480Z,48.17
2023-05-01T07:22:33.161Z,48.10
2023-05-01T07:25:03.694Z,47.91
2023-05-01T07:27:34.629Z,48.06
2023-05-01T07:30:06.011Z,48.00
2023-05-01T07:32:36.476Z,47.86
2023-05-01T07:35:09.276Z,47.58
2023-05-01T07:37:39.753Z,47.26
2023-05-01T07:40:12.997Z,47.23
2023-05-01T07:42:43.523Z,46.83
2023-05-01T07:45:14.202Z,46.73
2023-05-01T07:47:44.826Z,46.75
2023-05-01T07:50:15.478Z,46.55
2023-05-01T07:52:46.674Z,46.80
2023-05-01T07:55:19.300Z,46.86
2023-05-01T07:57:49.835Z,46.87
2023-05-01T08:00:22.224Z,46.29
2023-05-01T08:02:54.077Z,46.76
2023-05-01T08:05:24.780Z,46.27
2023-05-01T08:07:55.299Z,46.15
2023-05-01T08:10:26.235Z,46.67
2023-05-01T08:12:56.964Z,46.59
2023-05-01T08:15:28.673Z,45.97
2023-05-01T08:17:59.150Z,45.88
2023-05-01T08:20:29.763Z,45.51
2023-05-01T08:23:00.319Z,45.47
2023-05-01T08:25:31.709Z,45.97
2023-05-01T08:28:02.229Z,45.47
2023-05-01T08:30:32.840Z,44.49
2023-05-01T08:33:03.644Z,44.84
2023-05-01T08:35:34.298Z,45.00
2023-05-01T08:38:04.840Z,44.96
2023-05-01T08:40:39.141Z,44.33
2023-05-01T08:43:09.644Z,43.85
2023-05-01T08:45:40.664Z,43.53
2023-05-01T08:48:12.091Z,44.84
2023-05-01T08:50:46.643Z,44.02
2023-05-01T08:53:18.623Z,44.02
2023-05-01T08:55:49.742Z,42.91
2023-05-01T08:58:20.588Z,43.13
2023-05-01T09:00:51.198Z,43.32
2023-05-01T09:03:22.227Z,42.33
2023-05-01T09:05:53.652Z,43.15
2023-05-01T09:08:24.127Z,42.20
2023-05-01T09:10:55.334Z,42.69
2023-05-01T09:13:26.582Z,43.60
2023-05-01T09:15:57.290Z,43.63
2023-05-01T09:18:28.197Z,43.71
2023-05-01T09:20:58.796Z,42.92
2023-05-01T09:23:29.379Z,44.33
2023-05-01T09:26:00.765Z,44.72
2023-05-01T09:28:44.681Z,43.98
2023-05-01T09:31:25.664Z,42.59
2023-05-01T09:33:56.790Z,40.80
2023-05-01T09:36:28.457Z,41.51
2023-05-01T09:39:00.363Z,41.72
2023-05-01T09:41:31.753Z,42.09
2023-05-01T09:44:02.708Z,41.42
2023-05-01T09:46:42.352Z,41.33
2023-05-01T09:49:13.059Z,42.59
2023-05-01T09:51:43.716Z,40.59
2023-05-01T09:54:20.896Z,40.59
2023-05-01T09:56:51.394Z,40.12
2023-05-01T09:59:22.277Z,39.97
2023-05-01T10:01:53.500Z,40.45
2023-05-01T10:04:32.630Z,39.52
2023-05-01T10:07:12.935Z,39.55
2023-05-01T10:09:43.437Z,39.54
2023-05-01T10:12:23.966Z,39.64
2023-05-01T10:14:55.464Z,39.03
2023-05-01T10:17:25.941Z,39.20
2023-05-01T10:19:56.756Z,39.31
2023-05-01T10:22:27.612Z,39.85
2023-05-01T10:24:59.529Z,39.52
2023-05-01T10:27:30.209Z,39.30
2023-05-01T10:30:04.853Z,38.88
2023-05-01T10:32:36.497Z,38.34
2023-05-01T10:35:11.171Z,39.27
2023-05-01T10:37:47.702Z,39.67
2023-05-01T10:40:35.521Z,39.82
2023-05-01T10:43:19.340Z,39.04
2023-05-01T10:45:50.105Z,38.59
2023-05-01T10:48:52.380Z,38.81
2023-05-01T10:51:26.558Z,39.63
2023-05-01T10:54:15.709Z,38.94
2023-05-01T10:56:46.259Z,38.83
2023-05-01T10:59:16.765Z,38.95
2023-05-01T11:01:48.211Z,37.24
2023-05-01T11:04:36.172Z,38.31
2023-05-01T11:07:26.331Z,37.96
2023-05-01T11:09:58.999Z,37.53
2023-05-01T11:12:47.177Z,38.19
2023-05-01T11:15:28.259Z,37.59
2023-05-01T11:17:59.108Z,38.71
2023-05-01T11:20:51.798Z,38.43
2023-05-01T11:23:23.614Z,37.97
2023-05-01T11:26:05.039Z,37.45
2023-05-01T11:28:35.625Z,37.95
2023-05-01T11:31:06.489Z,38.03
2023-05-01T11:33:37.041Z,37.11
2023-05-01T11:36:09.178Z,37.33
2023-05-01T11:38:39.974Z,38.52
2023-05-01T11:41:10.556Z,37.32
2023-05-01T11:43:53.079Z,38.69
2023-05-01T11:46:27.763Z,37.56
2023-05-01T11:48:58.909Z,38.35
2023-05-01T11:51:30.009Z,39.01
2023-05-01T11:54:01.454Z,39.15
2023-05-01T11:56:32.932Z,38.41
2023-05-01T11:59:11.545Z,39.11
2023-05-01T12:01:44.064Z,38.86
2023-05-01T12:04:15.475Z,37.21
2023-05-01T12:06:46.599Z,37.68
2023-05-01T12:09:18.886Z,37.37
2023-05-01T12:11:52.396Z,37.61
2023-05-01T12:14:24.615Z,37.95
2023-05-01T12:16:55.815Z,37.67
2023-05-01T12:19:26.556Z,36.68
2023-05-01T12:22:08.040Z,36.95
2023-05-01T12:24:38.700Z,35.29
2023-05-01T12:27:09.356Z,36.15
2023-05-01T12:29:44.875Z,35.96
2023-05-01T12:32:15.511Z,36.90
2023-05-01T12:34:46.198Z,35.79
2023-05-01T12:37:17.129Z,35.75
2023-05-01T12:39:47.653Z,36.24
2023-05-01T12:42:18.793Z,36.85
2023-05-01T12:44:49.444Z,37.25
2023-05-01T12:47:20.114Z,36.87
2023-05-01T12:49:50.698Z,37.20
2023-05-01T12:52:28.264Z,36.98
2023-05-01T12:55:04.854Z,35.92
2023-05-01T12:57:35.647Z,36.40
2023-05-01T13:00:06.892Z,36.22
2023-05-01T13:02:37.484Z,36.26
2023-05-01T13:05:09.124Z,36.34
2023-05-01T13:07:40.167Z,35.84
2023-05-01T13:10:12.040Z,35.02
2023-05-01T13:12:46.412Z,36.19
2023-05-01T13:15:23.017Z,36.97
2023-05-01T13:17:53.857Z,36.69
2023-05-01T13:20:28.567Z,36.29
2023-05-01T13:22:59.168Z,36.26
2023-05-01T13:25:29.674Z,35.89
2023-05-01T13:28:00.274Z,36.11
2023-05-01T13:30:33.892Z,35.98
2023-05-01T13:33:05.526Z,36.50
2023-05-01T13:35:36.152Z,35.34
2023-05-01T13:38:10.179Z,34.96
2023-05-01T13:40:41.051Z,34.54
2023-05-01T13:43:16.383Z,34.93
2023-05-01T13:45:47.465Z,35.47
2023-05-01T13:48:19.901Z,35.58
2023-05-01T13:50:50.503Z,35.37
2023-05-01T13:53:21.280Z,34.36
2023-05-01T13:55:51.868Z,34.58
2023-05-01T13:58:22.347Z,34.96
2023-05-01T14:00:52.946Z,35.55
2023-05-01T14:03:23.542Z,34.79
2023-05-01T14:05:54.184Z,35.34
2023-05-01T14:08:27.010Z,35.70
2023-05-01T14:10:59.195Z,36.07
2023-05-01T14:13:29.753Z,36.03
2023-05-01T14:16:00.261Z,35.37
2023-05-01T14:18:30.791Z,35.02
2023-05-01T14:21:01.658Z,35.03
2023-05-01T14:23:33.469Z,34.53
2023-05-01T14:26:05.015Z,34.63
2023-05-01T14:28:36.031Z,34.83
2023-05-01T14:31:07.557Z,35.30
2023-05-01T14:33:42.568Z,35.34
2023-05-01T14:36:13.508Z,35.74
2023-05-01T14:38:46.871Z,35.72
2023-05-01T14:41:18.488Z,35.25
2023-05-01T14:43:51.284Z,35.86
2023-05-01T14:46:27.157Z,36.09
2023-05-01T14:48:58.137Z,35.52
2023-05-01T14:51:29.316Z,35.56
2023-05-01T14:54:00.317Z,35.76
2023-05-01T14:56:31.004Z,35.78
2023-05-01T14:59:01.678Z,35.26
2023-05-01T15:01:32.481Z,35.17
2023-05-01T15:04:03.997Z,35.60
2023-05-01T15:06:35.020Z,35.05
2023-05-01T15:09:06.258Z,35.82
2023-05-01T15:11:36.882Z,35.73
2023-05-01T15:14:07.484Z,35.59
2023-05-01T15:16:38.074Z,35.66
2023-05-01T15:19:08.704Z,35.51
2023-05-01T15:21:39.236Z,35.58
2023-05-01T15:24:10.471Z,35.21
2023-05-01T15:26:41.024Z,35.84
2023-05-01T15:29:11.555Z,35.38
2023-05-01T15:31:42.555Z,35.45
2023-05-01T15:34:13.044Z,35.82
2023-05-01T15:36:43.796Z,35.61
2023-05-01T15:39:14.422Z,35.62
2023-05-01T15:41:45.110Z,35.82
2023-05-01T15:44:16.389Z,35.68
2023-05-01T15:46:49.501Z,35.64
2023-05-01T15:49:20.334Z,35.67
2023-05-01T15:51:50.898Z,35.74
2023-05-01T15:54:21.942Z,35.78
2023-05-01T15:56:52.815Z,36.08
2023-05-01T15:59:23.360Z,36.21
2023-05-01T16:01:55.402Z,35.95
2023-05-01T16:04:26.076Z,36.07
2023-05-01T16:06:56.736Z,35.84
2023-05-01T16:09:30.935Z,35.32
2023-05-01T16:12:03.326Z,35.76
2023-05-01T16:14:36.504Z,36.12
2023-05-01T16:17:07.744Z,36.08
2023-05-01T16:19:39.762Z,36.15
2023-05-01T16:22:11.653Z,35.95
2023-05-01T16:24:42.360Z,35.91
2023-05-01T16:27:15.004Z,35.89
2023-05-01T16:29:45.595Z,35.81
2023-05-01T16:32:17.623Z,35.87
2023-05-01T16:34:49.467Z,35.82
2023-05-01T16:37:21.313Z,35.86
2023-05-01T16:39:51.868Z,35.84
2023-05-01T16:42:22.459Z,35.89
2023-05-01T16:44:53.047Z,35.75
2023-05-01T16:47:23.832Z,35.62
2023-05-01T16:50:00.829Z,35.70
2023-05-01T16:52:31.603Z,35.64
2023-05-01T16:55:02.828Z,35.46
2023-05-01T16:57:33.454Z,35.64
2023-05-01T17:00:05.219Z,35.77
2023-05-01T17:02:36.010Z,35.71
2023-05-01T17:05:07.292Z,35.63
2023-05-01T17:07:37.977Z,35.81
2023-05-01T17:10:10.824Z,35.86
2023-05-01T17:12:41.474Z,35.80
2023-05-01T17:15:14.425Z,35.56
2023-05-01T17:17:44.872Z,35.91
2023-05-01T17:20:15.783Z,35.89
2023-05-01T17:22:46.593Z,35.93
2023-05-01T17:25:17.354Z,35.94
2023-05-01T17:27:47.976Z,35.94
2023-05-01T17:30:18.753Z,36.08
2023-05-01T17:32:49.449Z,36.12
2023-05-01T17:35:20.199Z,36.14
2023-05-01T17:37:51.195Z,36.20
2023-05-01T17:40:21.888Z,36.29
2023-05-01T17:42:52.482Z,36.21
2023-05-01T17:45:23.120Z,36.35
2023-05-01T17:47:54.104Z,36.38
2023-05-01T17:50:24.927Z,36.47
2023-05-01T17:52:56.652Z,36.48
2023-05-01T17:55:28.121Z,36.44
2023-05-01T17:57:58.650Z,36.55
2023-05-01T18:00:30.763Z,36.57
2023-05-01T18:03:01.331Z,36.56
2023-05-01T18:05:31.978Z,36.60
2023-05-01T18:08:02.648Z,36.64
2023-05-01T18:10:33.243Z,36.66
2023-05-01T18:13:03.755Z,36.74
2023-05-01T18:15:34.331Z,36.68
2023-05-01T18:18:05.115Z,36.75
2023-05-01T18:20:35.744Z,36.81
2023-05-01T18:23:06.979Z,36.85
2023-05-01T18:25:38.163Z,36.83
2023-05-01T18:28:08.685Z,37.00
2023-05-01T18:30:39.259Z,36.92
2023-05-01T18:33:10.137Z,36.90
2023-05-01T18:35:42.281Z,36.97
2023-05-01T18:38:12.931Z,37.18
2023-05-01T18:40:43.453Z,37.07
2023-05-01T18:43:14.310Z,37.10
2023-05-01T18:45:44.809Z,36.99
2023-05-01T18:48:15.341Z,37.10
2023-05-01T18:50:54.105Z,37.13
2023-05-01T18:53:28.019Z,37.26
2023-05-01T18:55:58.504Z,37.31
2023-05-01T18:58:28.939Z,37.23
2023-05-01T19:00:59.541Z,37.23
2023-05-01T19:03:30.061Z,37.24
2023-05-01T19:06:00.730Z,37.28
2023-05-01T19:08:31.743Z,37.49
2023-05-01T19:11:02.370Z,37.56
2023-05-01T19:13:32.879Z,37.38
2023-05-01T19:16:03.489Z,37.54
2023-05-01T19:18:34.468Z,37.46
2023-05-01T19:21:05.553Z,37.64
2023-05-01T19:23:37.616Z,37.62
2023-05-01T19:26:08.101Z,37.76
2023-05-01T19:28:38.856Z,37.62
2023-05-01T19:31:09.508Z,37.79
2023-05-01T19:33:40.049Z,37.59
2023-05-01T19:36:10.605Z,37.83
2023-05-01T19:38:41.913Z,37.73
2023-05-01T19:41:15.929Z,37.79
2023-05-01T19:43:46.500Z,37.99
2023-05-01T19:46:17.064Z,37.85
2023-05-01T19:48:47.635Z,37.83
2023-05-01T19:51:18.104Z,37.76
2023-05-01T19:53:48.870Z,37.93
2023-05-01T19:56:19.492Z,38.02
2023-05-01T19:58:50.710Z,37.91
2023-05-01T20:01:21.435Z,38.15
2023-05-01T20:03:52.484Z,37.99
2023-05-01T20:06:23.250Z,38.08
2023-05-01T20:08:53.986Z,38.18
2023-05-01T20:11:24.536Z,38.08
2023-05-01T20:13:55.110Z,38.09
2023-05-01T20:16:27.825Z,38.02
2023-05-01T20:18:58.475Z,37.96
2023-05-01T20:21:29.210Z,38.25
2023-05-01T20:23:59.864Z,38.25
2023-05-01T20:26:30.535Z,38.07
2023-05-01T20:29:01.305Z,38.17
2023-05-01T20:31:32.185Z,38.29
2023-05-01T20:34:02.949Z,38.13
2023-05-01T20:36:33.884Z,38.26
2023-05-01T20:39:04.850Z,38.22
2023-05-01T20:41:35.417Z,38.29
2023-05-01T20:44:07.031Z,38.26
2023-05-01T20:46:37.702Z,38.21
2023-05-01T20:49:08.614Z,38.36
2023-05-01T20:51:39.534Z,38.44
2023-05-01T20:54:10.192Z,38.41
2023-05-01T20:56:40.634Z,38.43
2023-05-01T20:59:11.204Z,38.70
2023-05-01T21:01:41.746Z,38.41
2023-05-01T21:04:13.273Z,38.51
2023-05-01T21:06:44.292Z,38.40
2023-05-01T21:09:15.471Z,38.49
2023-05-01T21:11:46.014Z,38.50
2023-05-01T21:14:16.675Z,38.49
2023-05-01T21:16:47.298Z,38.72
2023-05-01T21:19:18.014Z,38.58
2023-05-01T21:21:48.651Z,38.61
2023-05-01T21:24:21.659Z,38.81
2023-05-01T21:26:52.369Z,38.48
2023-05-01T21:29:23.179Z,38.50
2023-05-01T21:31:53.771Z,38.64
2023-05-01T21:34:24.824Z,38.48
2023-05-01T21:36:55.397Z,38.66
2023-05-01T21:39:25.868Z,38.64
2023-05-01T21:41:56.515Z,38.75
2023-05-01T21:44:30.312Z,38.71
2023-05-01T21:47:02.548Z,38.78
2023-05-01T21:49:33.133Z,38.72
2023-05-01T21:52:03.678Z,38.86
2023-05-01T21:54:35.023Z,38.97
2023-05-01T21:57:08.067Z,38.89
2023-05-01T21:59:39.133Z,38.93
2023-05-01T22:02:11.286Z,39.00
2023-05-01T22:04:42.030Z,39.03
2023-05-01T22:07:13.257Z,38.93
2023-05-01T22:09:43.967Z,39.03
2023-05-01T22:12:14.870Z,39.26
2023-05-01T22:14:47.817Z,39.21
2023-05-01T22:17:24.358Z,39.25
2023-05-01T22:19:55.241Z,39.36
2023-05-01T22:22:25.986Z,39.11
2023-05-01T22:24:56.552Z,39.36
2023-05-01T22:27:27.253Z,39.40
2023-05-01T22:29:58.112Z,39.70
2023-05-01T22:32:29.396Z,39.45
2023-05-01T22:34:59.954Z,39.56
2023-05-01T22:37:31.282Z,39.44
2023-05-01T22:40:02.199Z,39.45
2023-05-01T22:42:33.368Z,39.65
2023-05-01T22:45:04.037Z,39.52
2023-05-01T22:47:34.934Z,39.56
2023-05-01T22:50:05.833Z,39.73
2023-05-01T22:52:37.258Z,40.25
2023-05-01T22:55:09.023Z,39.87
2023-05-01T22:57:39.832Z,39.69
2023-05-01T23:00:12.916Z,40.00
2023-05-01T23:02:43.566Z,39.94
2023-05-01T23:05:14.241Z,39.86
2023-05-01T23:07:45.749Z,39.88
2023-05-01T23:10:16.979Z,39.92
2023-05-01T23:12:48.305Z,40.03
2023-05-01T23:15:23.702Z,40.18
2023-05-01T23:17:54.365Z,40.25
2023-05-01T23:20:25.581Z,40.53
2023-05-01T23:22:56.176Z,40.29
2023-05-01T23:25:27.334Z,40.54
2023-05-01T23:27:57.971Z,40.57
2023-05-01T23:30:28.522Z,40.23
2023-05-01T23:32:59.916Z,40.43
2023-05-01T23:35:31.118Z,40.54
2023-05-01T23:38:01.669Z,40.41
2023-05-01T23:40:32.180Z,40.47
2023-05-01T23:43:02.788Z,40.48
2023-05-01T23:45:33.666Z,40.55
2023-05-01T23:48:05.071Z,40.40
2023-05-01T23:50:35.769Z,40.67
2023-05-01T23:53:08.239Z,40.42
2023-05-01T23:55:39.825Z,40.85
2023-05-01T23:58:10.298Z,40.47
